Aviation Digital Data Service (ADDS)

Output produced by METARs form (1456 UTC 26 April 2018)
found at http://aviationweather.gov/adds/metars/
 
KAVL 261120Z 2612/2712 35005KT P6SM OVC040 
     FM261500 15007KT P6SM VCSH OVC025 
     FM261900 16008KT P6SM -SHRA OVC015 
     FM262300 35007KT 5SM BR VCSH OVC012 
     FM270400 34009KT 6SM BR OVC007